Venetia, Pennsylvania
Current Conditions -  °F | °C
As of 2:53 AM on Saturday 25 Oct 2014 (Local Time) from KAGC Reporting Station
Overcast Overcast  
Wind Chill: 44°   Ceiling: 4700
Heat Index: 48°   Visibility: 10mi
Dew Point: 37°   Wind: 8mph
Humidity: 66%   Direction: 190°S
Pressure: 29.98"   Gusts: NA
Location:  40.25°N, 80.03°W
Report Text: KAGC 250653Z 19007KT 10SM OVC047 09/03 A2998 RMK AO2 SLP159 T00890028
Loading
Personal Weather Stations






























Interactive Weather Map New forecast layout! Learn more

10-Day Weather Forecast

Advertisements
Track Severe Weather on mobile